sensor_id;sensor_type;location;lat;lon;timestamp;temperature;humidity
33717;DHT22;20046;50.746;7.072;2024-03-22T00:02:02;10.40;99.90
33717;DHT22;20046;50.746;7.072;2024-03-22T00:04:28;10.40;99.90
33717;DHT22;20046;50.746;7.072;2024-03-22T00:06:54;10.40;99.90
33717;DHT22;20046;50.746;7.072;2024-03-22T00:09:19;10.40;99.90
33717;DHT22;20046;50.746;7.072;2024-03-22T00:11:45;10.40;99.90
33717;DHT22;20046;50.746;7.072;2024-03-22T00:14:11;10.40;99.90
33717;DHT22;20046;50.746;7.072;2024-03-22T00:16:37;10.40;99.90
33717;DHT22;20046;50.746;7.072;2024-03-22T00:19:03;10.40;99.90
33717;DHT22;20046;50.746;7.072;2024-03-22T00:21:28;10.40;99.90
33717;DHT22;20046;50.746;7.072;2024-03-22T00:23:55;10.40;99.90
33717;DHT22;20046;50.746;7.072;2024-03-22T00:26:27;10.40;99.90
33717;DHT22;20046;50.746;7.072;2024-03-22T00:28:53;10.40;99.90
33717;DHT22;20046;50.746;7.072;2024-03-22T00:31:19;10.40;99.90
33717;DHT22;20046;50.746;7.072;2024-03-22T00:33:44;10.40;99.90
33717;DHT22;20046;50.746;7.072;2024-03-22T00:36:10;10.40;99.90
33717;DHT22;20046;50.746;7.072;2024-03-22T00:38:36;10.40;99.90
33717;DHT22;20046;50.746;7.072;2024-03-22T00:41:02;10.40;99.90
33717;DHT22;20046;50.746;7.072;2024-03-22T00:46:03;10.30;99.90
33717;DHT22;20046;50.746;7.072;2024-03-22T00:48:29;10.30;99.90
33717;DHT22;20046;50.746;7.072;2024-03-22T00:50:54;10.30;99.90
33717;DHT22;20046;50.746;7.072;2024-03-22T00:56:45;10.20;99.90
33717;DHT22;20046;50.746;7.072;2024-03-22T01:00:15;10.20;99.90
33717;DHT22;20046;50.746;7.072;2024-03-22T01:02:46;10.10;99.90
33717;DHT22;20046;50.746;7.072;2024-03-22T01:05:12;10.00;99.90
33717;DHT22;20046;50.746;7.072;2024-03-22T01:07:37;10.00;99.90
33717;DHT22;20046;50.746;7.072;2024-03-22T01:10:06;10.00;99.90
33717;DHT22;20046;50.746;7.072;2024-03-22T01:12:32;9.90;99.90
33717;DHT22;20046;50.746;7.072;2024-03-22T01:14:58;9.80;99.90
33717;DHT22;20046;50.746;7.072;2024-03-22T01:17:23;9.80;99.90
33717;DHT22;20046;50.746;7.072;2024-03-22T01:19:49;9.80;99.90
33717;DHT22;20046;50.746;7.072;2024-03-22T01:22:16;9.80;99.90
33717;DHT22;20046;50.746;7.072;2024-03-22T01:24:42;9.70;99.90
33717;DHT22;20046;50.746;7.072;2024-03-22T01:27:08;9.80;99.90
33717;DHT22;20046;50.746;7.072;2024-03-22T01:29:34;9.80;99.90
33717;DHT22;20046;50.746;7.072;2024-03-22T01:31:59;9.80;99.90
33717;DHT22;20046;50.746;7.072;2024-03-22T01:34:25;9.80;99.90
33717;DHT22;20046;50.746;7.072;2024-03-22T01:36:51;9.80;99.90
33717;DHT22;20046;50.746;7.072;2024-03-22T01:39:18;9.90;99.90
33717;DHT22;20046;50.746;7.072;2024-03-22T01:41:49;9.90;99.90
33717;DHT22;20046;50.746;7.072;2024-03-22T01:44:15;10.00;99.90
33717;DHT22;20046;50.746;7.072;2024-03-22T01:46:41;10.10;99.90
33717;DHT22;20046;50.746;7.072;2024-03-22T01:49:12;10.10;99.90
33717;DHT22;20046;50.746;7.072;2024-03-22T01:51:42;10.10;99.90
33717;DHT22;20046;50.746;7.072;2024-03-22T01:54:11;10.00;99.90
33717;DHT22;20046;50.746;7.072;2024-03-22T01:56:37;10.10;99.90
33717;DHT22;20046;50.746;7.072;2024-03-22T01:59:04;10.10;99.90
33717;DHT22;20046;50.746;7.072;2024-03-22T02:01:31;10.10;99.90
33717;DHT22;20046;50.746;7.072;2024-03-22T02:03:57;10.00;99.90
33717;DHT22;20046;50.746;7.072;2024-03-22T02:06:22;10.00;99.90
33717;DHT22;20046;50.746;7.072;2024-03-22T02:08:48;10.00;99.90
33717;DHT22;20046;50.746;7.072;2024-03-22T02:11:14;10.00;99.90
33717;DHT22;20046;50.746;7.072;2024-03-22T02:13:39;10.00;99.90
33717;DHT22;20046;50.746;7.072;2024-03-22T02:16:05;10.00;99.90
33717;DHT22;20046;50.746;7.072;2024-03-22T02:18:31;10.00;99.90
33717;DHT22;20046;50.746;7.072;2024-03-22T02:20:57;9.90;99.90
33717;DHT22;20046;50.746;7.072;2024-03-22T02:23:32;9.90;99.90
33717;DHT22;20046;50.746;7.072;2024-03-22T02:25:59;10.00;99.90
33717;DHT22;20046;50.746;7.072;2024-03-22T02:28:25;10.00;99.90
33717;DHT22;20046;50.746;7.072;2024-03-22T02:30:50;10.00;99.90
33717;DHT22;20046;50.746;7.072;2024-03-22T02:33:16;10.00;99.90
33717;DHT22;20046;50.746;7.072;2024-03-22T02:35:42;10.00;99.90
33717;DHT22;20046;50.746;7.072;2024-03-22T02:38:08;10.00;99.90
33717;DHT22;20046;50.746;7.072;2024-03-22T02:40:33;10.00;99.90
33717;DHT22;20046;50.746;7.072;2024-03-22T02:42:59;10.00;99.90
33717;DHT22;20046;50.746;7.072;2024-03-22T02:45:25;10.00;99.90
33717;DHT22;20046;50.746;7.072;2024-03-22T02:47:50;10.00;99.90
33717;DHT22;20046;50.746;7.072;2024-03-22T02:50:16;10.00;99.90
33717;DHT22;20046;50.746;7.072;2024-03-22T02:52:41;10.10;99.90
33717;DHT22;20046;50.746;7.072;2024-03-22T02:55:07;10.10;99.90
33717;DHT22;20046;50.746;7.072;2024-03-22T02:57:33;10.10;99.90
33717;DHT22;20046;50.746;7.072;2024-03-22T03:00:00;10.10;99.90
33717;DHT22;20046;50.746;7.072;2024-03-22T03:02:25;10.20;99.90
33717;DHT22;20046;50.746;7.072;2024-03-22T03:04:51;10.10;99.90
33717;DHT22;20046;50.746;7.072;2024-03-22T03:07:17;10.10;99.90
33717;DHT22;20046;50.746;7.072;2024-03-22T03:09:42;10.10;99.90
33717;DHT22;20046;50.746;7.072;2024-03-22T03:12:08;10.20;99.90
33717;DHT22;20046;50.746;7.072;2024-03-22T03:14:33;10.20;99.90
33717;DHT22;20046;50.746;7.072;2024-03-22T03:16:59;10.20;99.90
33717;DHT22;20046;50.746;7.072;2024-03-22T03:19:24;10.30;99.90
33717;DHT22;20046;50.746;7.072;2024-03-22T03:21:50;10.30;99.90
33717;DHT22;20046;50.746;7.072;2024-03-22T03:24:15;10.40;99.90
33717;DHT22;20046;50.746;7.072;2024-03-22T03:26:41;10.40;99.90
33717;DHT22;20046;50.746;7.072;2024-03-22T03:29:07;10.40;99.90
33717;DHT22;20046;50.746;7.072;2024-03-22T03:31:32;10.40;99.90
33717;DHT22;20046;50.746;7.072;2024-03-22T03:33:58;10.40;99.90
33717;DHT22;20046;50.746;7.072;2024-03-22T03:36:24;10.40;99.90
33717;DHT22;20046;50.746;7.072;2024-03-22T03:38:49;10.40;99.90
33717;DHT22;20046;50.746;7.072;2024-03-22T03:41:15;10.40;99.90
33717;DHT22;20046;50.746;7.072;2024-03-22T03:43:40;10.40;99.90
33717;DHT22;20046;50.746;7.072;2024-03-22T03:46:06;10.40;99.90
33717;DHT22;20046;50.746;7.072;2024-03-22T03:48:32;10.50;99.90
33717;DHT22;20046;50.746;7.072;2024-03-22T03:50:58;10.50;99.90
33717;DHT22;20046;50.746;7.072;2024-03-22T03:53:28;10.50;99.90
33717;DHT22;20046;50.746;7.072;2024-03-22T03:55:53;10.50;99.90
33717;DHT22;20046;50.746;7.072;2024-03-22T03:58:19;10.60;99.90
33717;DHT22;20046;50.746;7.072;2024-03-22T04:00:45;10.70;99.90
33717;DHT22;20046;50.746;7.072;2024-03-22T04:03:10;10.60;99.90
33717;DHT22;20046;50.746;7.072;2024-03-22T04:05:36;10.70;99.90
33717;DHT22;20046;50.746;7.072;2024-03-22T04:08:02;10.70;99.90
33717;DHT22;20046;50.746;7.072;2024-03-22T04:10:27;10.80;99.90
33717;DHT22;20046;50.746;7.072;2024-03-22T04:12:53;10.80;99.90
33717;DHT22;20046;50.746;7.072;2024-03-22T04:15:19;10.80;99.90
33717;DHT22;20046;50.746;7.072;2024-03-22T04:17:44;10.80;99.90
33717;DHT22;20046;50.746;7.072;2024-03-22T04:20:10;10.80;99.90
33717;DHT22;20046;50.746;7.072;2024-03-22T04:22:37;10.80;99.90
33717;DHT22;20046;50.746;7.072;2024-03-22T04:25:02;10.80;99.90
33717;DHT22;20046;50.746;7.072;2024-03-22T04:27:28;10.90;99.90
33717;DHT22;20046;50.746;7.072;2024-03-22T04:29:54;10.90;99.90
33717;DHT22;20046;50.746;7.072;2024-03-22T04:32:19;11.00;99.90
33717;DHT22;20046;50.746;7.072;2024-03-22T04:34:45;11.00;99.90
33717;DHT22;20046;50.746;7.072;2024-03-22T04:37:10;11.10;99.90
33717;DHT22;20046;50.746;7.072;2024-03-22T04:39:40;11.10;99.90
33717;DHT22;20046;50.746;7.072;2024-03-22T04:42:06;11.10;99.90
33717;DHT22;20046;50.746;7.072;2024-03-22T04:44:32;11.10;99.90
33717;DHT22;20046;50.746;7.072;2024-03-22T04:46:58;11.20;99.90
33717;DHT22;20046;50.746;7.072;2024-03-22T04:49:24;11.10;99.90
33717;DHT22;20046;50.746;7.072;2024-03-22T04:51:50;11.10;99.90
33717;DHT22;20046;50.746;7.072;2024-03-22T04:54:15;11.10;99.90
33717;DHT22;20046;50.746;7.072;2024-03-22T04:56:41;11.00;99.90
33717;DHT22;20046;50.746;7.072;2024-03-22T04:59:06;11.10;99.90
33717;DHT22;20046;50.746;7.072;2024-03-22T05:01:32;11.10;99.90
33717;DHT22;20046;50.746;7.072;2024-03-22T05:03:57;11.10;99.90
33717;DHT22;20046;50.746;7.072;2024-03-22T05:06:23;11.10;99.90
33717;DHT22;20046;50.746;7.072;2024-03-22T05:08:48;11.00;99.90
33717;DHT22;20046;50.746;7.072;2024-03-22T05:11:14;11.00;99.90
33717;DHT22;20046;50.746;7.072;2024-03-22T05:13:40;11.10;99.90
33717;DHT22;20046;50.746;7.072;2024-03-22T05:16:06;11.10;99.90
33717;DHT22;20046;50.746;7.072;2024-03-22T05:18:32;11.00;99.90
33717;DHT22;20046;50.746;7.072;2024-03-22T05:20:58;11.10;99.90
33717;DHT22;20046;50.746;7.072;2024-03-22T05:23:23;11.10;99.90
33717;DHT22;20046;50.746;7.072;2024-03-22T05:25:49;11.10;99.90
33717;DHT22;20046;50.746;7.072;2024-03-22T05:28:14;11.20;99.90
33717;DHT22;20046;50.746;7.072;2024-03-22T05:30:40;11.20;99.90
33717;DHT22;20046;50.746;7.072;2024-03-22T05:33:05;11.20;99.90
33717;DHT22;20046;50.746;7.072;2024-03-22T05:35:31;11.30;99.90
33717;DHT22;20046;50.746;7.072;2024-03-22T05:37:57;11.30;99.90
33717;DHT22;20046;50.746;7.072;2024-03-22T05:40:22;11.30;99.90
33717;DHT22;20046;50.746;7.072;2024-03-22T05:42:48;11.40;99.90
33717;DHT22;20046;50.746;7.072;2024-03-22T05:45:14;11.40;99.90
33717;DHT22;20046;50.746;7.072;2024-03-22T05:47:39;11.40;99.90
33717;DHT22;20046;50.746;7.072;2024-03-22T05:50:05;11.40;99.90
33717;DHT22;20046;50.746;7.072;2024-03-22T05:52:35;11.50;99.90
33717;DHT22;20046;50.746;7.072;2024-03-22T05:55:00;11.50;99.90
33717;DHT22;20046;50.746;7.072;2024-03-22T05:57:26;11.50;99.90
33717;DHT22;20046;50.746;7.072;2024-03-22T05:59:52;11.50;99.90
33717;DHT22;20046;50.746;7.072;2024-03-22T06:02:18;11.60;99.90
33717;DHT22;20046;50.746;7.072;2024-03-22T06:04:44;11.60;99.90
33717;DHT22;20046;50.746;7.072;2024-03-22T06:07:10;11.70;99.90
33717;DHT22;20046;50.746;7.072;2024-03-22T06:09:36;11.70;99.90
33717;DHT22;20046;50.746;7.072;2024-03-22T06:12:15;11.70;99.90
33717;DHT22;20046;50.746;7.072;2024-03-22T06:14:41;11.70;99.90
33717;DHT22;20046;50.746;7.072;2024-03-22T06:17:08;11.80;99.90
33717;DHT22;20046;50.746;7.072;2024-03-22T06:19:35;11.80;99.90
33717;DHT22;20046;50.746;7.072;2024-03-22T06:22:00;11.80;99.90
33717;DHT22;20046;50.746;7.072;2024-03-22T06:24:26;11.80;99.90
33717;DHT22;20046;50.746;7.072;2024-03-22T06:26:52;11.80;99.90
33717;DHT22;20046;50.746;7.072;2024-03-22T06:29:18;11.90;99.90
33717;DHT22;20046;50.746;7.072;2024-03-22T06:31:43;11.90;99.90
33717;DHT22;20046;50.746;7.072;2024-03-22T06:34:09;11.90;99.90
33717;DHT22;20046;50.746;7.072;2024-03-22T06:36:34;11.90;99.90
33717;DHT22;20046;50.746;7.072;2024-03-22T06:39:00;11.90;99.90
33717;DHT22;20046;50.746;7.072;2024-03-22T06:41:28;11.90;99.90
33717;DHT22;20046;50.746;7.072;2024-03-22T06:43:53;11.90;99.90
33717;DHT22;20046;50.746;7.072;2024-03-22T06:46:19;12.00;99.90
33717;DHT22;20046;50.746;7.072;2024-03-22T06:48:45;12.00;99.90
33717;DHT22;20046;50.746;7.072;2024-03-22T06:51:11;12.00;99.90
33717;DHT22;20046;50.746;7.072;2024-03-22T06:53:37;12.10;99.90
33717;DHT22;20046;50.746;7.072;2024-03-22T06:56:03;12.10;99.90
33717;DHT22;20046;50.746;7.072;2024-03-22T06:58:29;12.10;99.90
33717;DHT22;20046;50.746;7.072;2024-03-22T07:00:55;12.20;99.90
33717;DHT22;20046;50.746;7.072;2024-03-22T07:03:21;12.20;99.90
33717;DHT22;20046;50.746;7.072;2024-03-22T07:05:49;12.30;99.90
33717;DHT22;20046;50.746;7.072;2024-03-22T07:08:15;12.30;99.90
33717;DHT22;20046;50.746;7.072;2024-03-22T07:10:41;12.40;99.90
33717;DHT22;20046;50.746;7.072;2024-03-22T07:13:07;12.50;99.90
33717;DHT22;20046;50.746;7.072;2024-03-22T07:15:33;12.50;99.90
33717;DHT22;20046;50.746;7.072;2024-03-22T07:17:58;12.60;99.90
33717;DHT22;20046;50.746;7.072;2024-03-22T07:20:25;12.70;99.90
33717;DHT22;20046;50.746;7.072;2024-03-22T07:22:51;12.80;99.90
33717;DHT22;20046;50.746;7.072;2024-03-22T07:25:17;13.00;99.90
33717;DHT22;20046;50.746;7.072;2024-03-22T07:27:42;13.30;99.90
33717;DHT22;20046;50.746;7.072;2024-03-22T07:30:08;14.20;99.90
33717;DHT22;20046;50.746;7.072;2024-03-22T07:32:34;15.20;99.90
33717;DHT22;20046;50.746;7.072;2024-03-22T07:35:01;16.00;99.90
33717;DHT22;20046;50.746;7.072;2024-03-22T07:37:26;16.60;99.90
33717;DHT22;20046;50.746;7.072;2024-03-22T07:39:52;16.80;99.90
33717;DHT22;20046;50.746;7.072;2024-03-22T07:42:17;17.20;99.90
33717;DHT22;20046;50.746;7.072;2024-03-22T07:44:43;17.70;99.90
33717;DHT22;20046;50.746;7.072;2024-03-22T07:47:08;18.20;99.90
33717;DHT22;20046;50.746;7.072;2024-03-22T07:49:34;18.40;99.90
33717;DHT22;20046;50.746;7.072;2024-03-22T07:52:00;18.10;99.90
33717;DHT22;20046;50.746;7.072;2024-03-22T07:54:26;17.90;99.90
33717;DHT22;20046;50.746;7.072;2024-03-22T07:56:51;17.50;99.90
33717;DHT22;20046;50.746;7.072;2024-03-22T07:59:17;17.20;99.90
33717;DHT22;20046;50.746;7.072;2024-03-22T08:01:42;16.70;99.90
33717;DHT22;20046;50.746;7.072;2024-03-22T08:04:08;16.40;99.90
33717;DHT22;20046;50.746;7.072;2024-03-22T08:06:34;16.20;99.90
33717;DHT22;20046;50.746;7.072;2024-03-22T08:08:59;16.10;99.90
33717;DHT22;20046;50.746;7.072;2024-03-22T08:11:27;16.00;99.90
33717;DHT22;20046;50.746;7.072;2024-03-22T08:13:52;15.90;99.90
33717;DHT22;20046;50.746;7.072;2024-03-22T08:16:19;16.00;99.90
33717;DHT22;20046;50.746;7.072;2024-03-22T08:18:45;16.20;99.90
33717;DHT22;20046;50.746;7.072;2024-03-22T08:21:10;16.50;99.90
33717;DHT22;20046;50.746;7.072;2024-03-22T08:23:36;16.80;99.90
33717;DHT22;20046;50.746;7.072;2024-03-22T08:26:01;17.50;99.90
33717;DHT22;20046;50.746;7.072;2024-03-22T08:28:27;18.20;99.90
33717;DHT22;20046;50.746;7.072;2024-03-22T08:30:53;18.50;99.90
33717;DHT22;20046;50.746;7.072;2024-03-22T08:33:18;19.10;99.90
33717;DHT22;20046;50.746;7.072;2024-03-22T08:35:44;19.60;99.90
33717;DHT22;20046;50.746;7.072;2024-03-22T08:38:10;20.10;99.90
33717;DHT22;20046;50.746;7.072;2024-03-22T08:40:39;20.60;99.90
33717;DHT22;20046;50.746;7.072;2024-03-22T08:43:06;20.70;99.90
33717;DHT22;20046;50.746;7.072;2024-03-22T08:45:35;20.10;99.90
33717;DHT22;20046;50.746;7.072;2024-03-22T08:48:01;19.50;99.90
33717;DHT22;20046;50.746;7.072;2024-03-22T08:50:28;19.10;99.90
33717;DHT22;20046;50.746;7.072;2024-03-22T08:52:53;18.60;99.90
33717;DHT22;20046;50.746;7.072;2024-03-22T08:55:19;18.20;99.90
33717;DHT22;20046;50.746;7.072;2024-03-22T08:57:44;17.90;99.90
33717;DHT22;20046;50.746;7.072;2024-03-22T09:00:11;17.60;99.90
33717;DHT22;20046;50.746;7.072;2024-03-22T09:02:37;17.40;99.90
33717;DHT22;20046;50.746;7.072;2024-03-22T09:05:07;17.10;99.90
33717;DHT22;20046;50.746;7.072;2024-03-22T09:07:34;17.00;99.90
33717;DHT22;20046;50.746;7.072;2024-03-22T09:09:59;16.90;99.90
33717;DHT22;20046;50.746;7.072;2024-03-22T09:12:25;16.80;99.90
33717;DHT22;20046;50.746;7.072;2024-03-22T09:14:50;16.80;99.90
33717;DHT22;20046;50.746;7.072;2024-03-22T09:17:16;16.70;99.90
33717;DHT22;20046;50.746;7.072;2024-03-22T09:19:42;16.60;99.90
33717;DHT22;20046;50.746;7.072;2024-03-22T09:22:07;16.60;99.90
33717;DHT22;20046;50.746;7.072;2024-03-22T09:24:33;16.50;99.90
33717;DHT22;20046;50.746;7.072;2024-03-22T09:26:58;16.50;99.90
33717;DHT22;20046;50.746;7.072;2024-03-22T09:29:24;16.60;99.90
33717;DHT22;20046;50.746;7.072;2024-03-22T09:31:50;16.70;99.90
33717;DHT22;20046;50.746;7.072;2024-03-22T09:34:16;16.80;99.90
33717;DHT22;20046;50.746;7.072;2024-03-22T09:36:42;16.90;99.90
33717;DHT22;20046;50.746;7.072;2024-03-22T09:39:07;17.10;99.90
33717;DHT22;20046;50.746;7.072;2024-03-22T09:41:40;17.20;99.90
33717;DHT22;20046;50.746;7.072;2024-03-22T09:44:07;17.30;99.90
33717;DHT22;20046;50.746;7.072;2024-03-22T09:46:36;17.40;99.90
33717;DHT22;20046;50.746;7.072;2024-03-22T09:49:03;17.60;99.90
33717;DHT22;20046;50.746;7.072;2024-03-22T09:51:29;18.00;99.90
33717;DHT22;20046;50.746;7.072;2024-03-22T09:53:55;18.40;99.90
33717;DHT22;20046;50.746;7.072;2024-03-22T09:56:21;18.70;99.90
33717;DHT22;20046;50.746;7.072;2024-03-22T09:58:50;19.00;99.90
33717;DHT22;20046;50.746;7.072;2024-03-22T10:01:15;19.10;99.90
33717;DHT22;20046;50.746;7.072;2024-03-22T10:03:42;19.20;99.90
33717;DHT22;20046;50.746;7.072;2024-03-22T10:06:08;19.30;99.90
33717;DHT22;20046;50.746;7.072;2024-03-22T10:08:33;19.50;99.90
33717;DHT22;20046;50.746;7.072;2024-03-22T10:11:02;19.60;99.90
33717;DHT22;20046;50.746;7.072;2024-03-22T10:13:28;19.80;99.90
33717;DHT22;20046;50.746;7.072;2024-03-22T10:15:55;20.20;99.90
33717;DHT22;20046;50.746;7.072;2024-03-22T10:18:21;20.50;99.90
33717;DHT22;20046;50.746;7.072;2024-03-22T10:20:58;20.60;99.90
33717;DHT22;20046;50.746;7.072;2024-03-22T10:23:25;20.40;99.90
33717;DHT22;20046;50.746;7.072;2024-03-22T10:25:51;20.30;99.90
33717;DHT22;20046;50.746;7.072;2024-03-22T10:28:17;20.20;99.90
33717;DHT22;20046;50.746;7.072;2024-03-22T10:30:44;20.10;99.90
33717;DHT22;20046;50.746;7.072;2024-03-22T10:33:10;20.00;99.90
33717;DHT22;20046;50.746;7.072;2024-03-22T10:35:36;19.90;99.90
33717;DHT22;20046;50.746;7.072;2024-03-22T10:38:03;19.70;99.90
33717;DHT22;20046;50.746;7.072;2024-03-22T10:40:29;19.40;99.90
33717;DHT22;20046;50.746;7.072;2024-03-22T10:42:56;19.20;99.90
33717;DHT22;20046;50.746;7.072;2024-03-22T10:45:22;18.90;99.90
33717;DHT22;20046;50.746;7.072;2024-03-22T10:47:53;18.60;99.90
33717;DHT22;20046;50.746;7.072;2024-03-22T10:50:22;18.30;99.90
33717;DHT22;20046;50.746;7.072;2024-03-22T10:52:58;18.10;99.90
33717;DHT22;20046;50.746;7.072;2024-03-22T10:55:30;18.10;99.90
33717;DHT22;20046;50.746;7.072;2024-03-22T10:57:57;18.20;99.90
33717;DHT22;20046;50.746;7.072;2024-03-22T11:00:30;18.40;99.90
33717;DHT22;20046;50.746;7.072;2024-03-22T11:02:56;18.80;99.90
33717;DHT22;20046;50.746;7.072;2024-03-22T11:05:22;19.00;99.90
33717;DHT22;20046;50.746;7.072;2024-03-22T11:08:02;19.20;99.90
33717;DHT22;20046;50.746;7.072;2024-03-22T11:10:30;19.30;99.90
33717;DHT22;20046;50.746;7.072;2024-03-22T11:13:02;19.40;99.90
33717;DHT22;20046;50.746;7.072;2024-03-22T11:15:29;19.20;99.90
33717;DHT22;20046;50.746;7.072;2024-03-22T11:17:55;18.90;99.90
33717;DHT22;20046;50.746;7.072;2024-03-22T11:20:20;18.80;99.90
33717;DHT22;20046;50.746;7.072;2024-03-22T11:22:46;18.70;99.90
33717;DHT22;20046;50.746;7.072;2024-03-22T11:25:12;18.70;99.90
33717;DHT22;20046;50.746;7.072;2024-03-22T11:27:41;18.80;99.90
33717;DHT22;20046;50.746;7.072;2024-03-22T11:30:07;19.00;99.90
33717;DHT22;20046;50.746;7.072;2024-03-22T11:32:33;19.10;99.90
33717;DHT22;20046;50.746;7.072;2024-03-22T11:35:10;19.30;99.90
33717;DHT22;20046;50.746;7.072;2024-03-22T11:37:40;19.50;99.90
33717;DHT22;20046;50.746;7.072;2024-03-22T11:40:09;19.90;99.90
33717;DHT22;20046;50.746;7.072;2024-03-22T11:42:37;20.60;99.90
33717;DHT22;20046;50.746;7.072;2024-03-22T11:45:04;20.80;99.90
33717;DHT22;20046;50.746;7.072;2024-03-22T11:47:30;20.60;99.90
33717;DHT22;20046;50.746;7.072;2024-03-22T11:49:56;20.00;99.90
33717;DHT22;20046;50.746;7.072;2024-03-22T11:52:25;19.60;99.90
33717;DHT22;20046;50.746;7.072;2024-03-22T11:54:51;19.30;99.90
33717;DHT22;20046;50.746;7.072;2024-03-22T11:57:48;19.00;99.90
33717;DHT22;20046;50.746;7.072;2024-03-22T12:00:14;18.70;99.90
33717;DHT22;20046;50.746;7.072;2024-03-22T12:02:40;18.40;99.90
33717;DHT22;20046;50.746;7.072;2024-03-22T12:05:07;18.30;99.90
33717;DHT22;20046;50.746;7.072;2024-03-22T12:07:34;18.20;99.90
33717;DHT22;20046;50.746;7.072;2024-03-22T12:09:59;18.00;99.90
33717;DHT22;20046;50.746;7.072;2024-03-22T12:12:25;17.90;99.90
33717;DHT22;20046;50.746;7.072;2024-03-22T12:14:52;17.70;99.90
33717;DHT22;20046;50.746;7.072;2024-03-22T12:17:17;17.70;99.90
33717;DHT22;20046;50.746;7.072;2024-03-22T12:19:43;17.60;99.90
33717;DHT22;20046;50.746;7.072;2024-03-22T12:22:09;17.60;99.90
33717;DHT22;20046;50.746;7.072;2024-03-22T12:24:35;17.60;99.90
33717;DHT22;20046;50.746;7.072;2024-03-22T12:27:01;17.50;99.90
33717;DHT22;20046;50.746;7.072;2024-03-22T12:29:27;17.50;99.90
33717;DHT22;20046;50.746;7.072;2024-03-22T12:31:52;17.50;99.90
33717;DHT22;20046;50.746;7.072;2024-03-22T12:34:18;17.50;99.90
33717;DHT22;20046;50.746;7.072;2024-03-22T12:36:44;17.50;99.90
33717;DHT22;20046;50.746;7.072;2024-03-22T12:39:09;17.40;99.90
33717;DHT22;20046;50.746;7.072;2024-03-22T12:41:35;17.40;99.90
33717;DHT22;20046;50.746;7.072;2024-03-22T12:44:01;17.40;99.90
33717;DHT22;20046;50.746;7.072;2024-03-22T12:46:27;17.30;99.90
33717;DHT22;20046;50.746;7.072;2024-03-22T12:48:53;17.30;99.90
33717;DHT22;20046;50.746;7.072;2024-03-22T12:51:19;17.20;99.90
33717;DHT22;20046;50.746;7.072;2024-03-22T12:53:45;17.20;99.90
33717;DHT22;20046;50.746;7.072;2024-03-22T12:56:11;17.20;99.90
33717;DHT22;20046;50.746;7.072;2024-03-22T12:58:37;17.20;99.90
33717;DHT22;20046;50.746;7.072;2024-03-22T13:01:03;17.20;99.90
33717;DHT22;20046;50.746;7.072;2024-03-22T13:03:34;17.10;99.90
33717;DHT22;20046;50.746;7.072;2024-03-22T13:06:08;17.10;99.90
33717;DHT22;20046;50.746;7.072;2024-03-22T13:08:33;17.10;99.90
33717;DHT22;20046;50.746;7.072;2024-03-22T13:10:59;17.10;99.90
33717;DHT22;20046;50.746;7.072;2024-03-22T13:13:25;17.20;99.90
33717;DHT22;20046;50.746;7.072;2024-03-22T13:15:50;17.20;99.90
33717;DHT22;20046;50.746;7.072;2024-03-22T13:18:16;17.30;99.90
33717;DHT22;20046;50.746;7.072;2024-03-22T13:20:41;17.50;99.90
33717;DHT22;20046;50.746;7.072;2024-03-22T13:23:07;18.00;99.90
33717;DHT22;20046;50.746;7.072;2024-03-22T13:25:35;19.00;99.90
33717;DHT22;20046;50.746;7.072;2024-03-22T13:28:02;20.50;99.90
33717;DHT22;20046;50.746;7.072;2024-03-22T13:30:28;22.30;99.90
33717;DHT22;20046;50.746;7.072;2024-03-22T13:32:54;23.10;98.70
33717;DHT22;20046;50.746;7.072;2024-03-22T13:35:19;23.30;97.70
33717;DHT22;20046;50.746;7.072;2024-03-22T13:37:45;23.40;97.20
33717;DHT22;20046;50.746;7.072;2024-03-22T13:40:11;24.30;96.10
33717;DHT22;20046;50.746;7.072;2024-03-22T13:42:37;24.30;95.40
33717;DHT22;20046;50.746;7.072;2024-03-22T13:45:02;23.80;94.40
33717;DHT22;20046;50.746;7.072;2024-03-22T13:47:28;23.30;94.70
33717;DHT22;20046;50.746;7.072;2024-03-22T13:49:54;22.80;94.90
33717;DHT22;20046;50.746;7.072;2024-03-22T13:52:20;23.10;95.80
33717;DHT22;20046;50.746;7.072;2024-03-22T13:54:49;23.50;94.80
33717;DHT22;20046;50.746;7.072;2024-03-22T13:57:17;23.50;94.40
33717;DHT22;20046;50.746;7.072;2024-03-22T13:59:43;23.90;93.50
33717;DHT22;20046;50.746;7.072;2024-03-22T14:02:09;24.10;93.10
33717;DHT22;20046;50.746;7.072;2024-03-22T14:04:35;25.30;92.50
33717;DHT22;20046;50.746;7.072;2024-03-22T14:07:01;26.70;90.40
33717;DHT22;20046;50.746;7.072;2024-03-22T14:09:33;28.10;87.30
33717;DHT22;20046;50.746;7.072;2024-03-22T14:11:59;28.10;81.30
33717;DHT22;20046;50.746;7.072;2024-03-22T14:14:25;27.60;79.80
33717;DHT22;20046;50.746;7.072;2024-03-22T14:16:51;26.60;79.30
33717;DHT22;20046;50.746;7.072;2024-03-22T14:19:17;25.80;80.70
33717;DHT22;20046;50.746;7.072;2024-03-22T14:21:47;24.90;81.60
33717;DHT22;20046;50.746;7.072;2024-03-22T14:24:13;24.30;82.90
33717;DHT22;20046;50.746;7.072;2024-03-22T14:26:39;24.30;83.40
33717;DHT22;20046;50.746;7.072;2024-03-22T14:29:11;23.80;82.90
33717;DHT22;20046;50.746;7.072;2024-03-22T14:31:37;23.30;83.60
33717;DHT22;20046;50.746;7.072;2024-03-22T14:34:04;22.90;83.60
33717;DHT22;20046;50.746;7.072;2024-03-22T14:36:31;22.20;84.90
33717;DHT22;20046;50.746;7.072;2024-03-22T14:38:56;21.70;87.70
33717;DHT22;20046;50.746;7.072;2024-03-22T14:41:22;21.20;89.30
33717;DHT22;20046;50.746;7.072;2024-03-22T14:43:47;20.80;90.30
33717;DHT22;20046;50.746;7.072;2024-03-22T14:46:13;21.40;90.70
33717;DHT22;20046;50.746;7.072;2024-03-22T14:48:39;21.80;89.80
33717;DHT22;20046;50.746;7.072;2024-03-22T14:51:05;22.60;89.60
33717;DHT22;20046;50.746;7.072;2024-03-22T14:53:30;22.60;89.60
33717;DHT22;20046;50.746;7.072;2024-03-22T14:55:57;22.20;89.10
33717;DHT22;20046;50.746;7.072;2024-03-22T14:58:27;22.00;90.00
33717;DHT22;20046;50.746;7.072;2024-03-22T15:00:57;21.70;90.60
33717;DHT22;20046;50.746;7.072;2024-03-22T15:03:23;21.40;90.60
33717;DHT22;20046;50.746;7.072;2024-03-22T15:05:53;21.20;91.30
33717;DHT22;20046;50.746;7.072;2024-03-22T15:08:20;20.80;91.00
33717;DHT22;20046;50.746;7.072;2024-03-22T15:10:45;20.40;91.10
33717;DHT22;20046;50.746;7.072;2024-03-22T15:13:12;20.20;91.10
33717;DHT22;20046;50.746;7.072;2024-03-22T15:15:38;20.20;91.30
33717;DHT22;20046;50.746;7.072;2024-03-22T15:18:04;20.00;91.20
33717;DHT22;20046;50.746;7.072;2024-03-22T15:20:33;20.00;91.30
33717;DHT22;20046;50.746;7.072;2024-03-22T15:23:00;19.80;91.80
33717;DHT22;20046;50.746;7.072;2024-03-22T15:25:26;19.60;91.00
33717;DHT22;20046;50.746;7.072;2024-03-22T15:27:51;19.40;91.50
33717;DHT22;20046;50.746;7.072;2024-03-22T15:30:17;19.20;91.60
33717;DHT22;20046;50.746;7.072;2024-03-22T15:32:43;19.00;91.70
33717;DHT22;20046;50.746;7.072;2024-03-22T15:35:09;18.90;92.00